Time;durP1;ratioP1;P1;durP2;ratioP2;P2;SDS_P1;SDS_P2;PMS_P1;PMS_P2;Temp;Humidity;BMP_temperature;BMP_pressure;BME280_temperature;BME280_humidity;BME280_pressure;Samples;Min_cycle;Max_cycle;Signal;HPM_P1;HPM_P2
2022/03/16 00:01:12;;;;;;;11.93;4.50;;;;;;;5.12;85.81;101093.72;5036914;28;20037;-79
2022/03/16 00:03:37;;;;;;;9.05;3.95;;;;;;;5.08;85.55;101095.03;5036805;28;20030;-78
2022/03/16 00:06:03;;;;;;;12.95;4.63;;;;;;;5.22;84.39;101094.47;5037469;28;20045;-79
2022/03/16 00:08:29;;;;;;;9.68;4.18;;;;;;;4.99;85.34;101097.78;5037225;28;20037;-79
2022/03/16 00:10:56;;;;;;;10.13;4.30;;;;;;;4.85;85.24;101099.13;5036690;28;20037;-79
2022/03/16 00:13:21;;;;;;;9.35;4.32;;;;;;;4.79;87.08;101095.25;5036053;28;20120;-79
2022/03/16 00:15:46;;;;;;;12.30;5.03;;;;;;;4.76;86.71;101098.22;5036138;28;20076;-79
2022/03/16 00:18:13;;;;;;;9.40;4.10;;;;;;;4.79;86.08;101102.41;5036439;28;20037;-79
2022/03/16 00:20:38;;;;;;;9.90;4.45;;;;;;;4.77;86.52;101107.06;5035904;28;20271;-79
2022/03/16 00:23:05;;;;;;;13.15;5.65;;;;;;;4.70;86.35;101109.50;5035610;28;20029;-80
2022/03/16 00:25:30;;;;;;;10.35;4.43;;;;;;;4.65;86.80;101109.13;5018650;28;20044;-79
2022/03/16 00:27:56;;;;;;;9.20;4.10;;;;;;;4.71;86.82;101107.66;5035437;28;20034;-79
2022/03/16 00:30:21;;;;;;;10.00;4.93;;;;;;;4.54;86.78;101115.50;5035817;28;20276;-78
2022/03/16 00:32:46;;;;;;;14.13;4.75;;;;;;;4.65;86.63;101108.28;5035953;28;20029;-78
2022/03/16 00:35:12;;;;;;;10.13;4.47;;;;;;;4.47;86.96;101116.25;5034451;28;20034;-79
2022/03/16 00:37:37;;;;;;;9.88;4.32;;;;;;;4.46;86.90;101115.41;5036065;28;20022;-79
2022/03/16 00:40:03;;;;;;;13.35;6.03;;;;;;;4.36;87.36;101114.59;5035578;28;20087;-80
2022/03/16 00:42:28;;;;;;;9.52;4.10;;;;;;;4.48;87.30;101116.06;5036087;28;20037;-79
2022/03/16 00:44:54;;;;;;;9.82;4.30;;;;;;;4.48;87.20;101117.91;5037161;28;20038;-80
2022/03/16 00:47:20;;;;;;;9.10;4.03;;;;;;;4.95;85.15;101117.78;5038598;28;20033;-80
2022/03/16 00:49:45;;;;;;;11.98;5.07;;;;;;;4.73;85.44;101116.38;5038594;28;20045;-80
2022/03/16 00:52:10;;;;;;;11.43;4.47;;;;;;;4.83;85.44;101120.66;5040352;28;20093;-79
2022/03/16 00:54:36;;;;;;;7.95;3.88;;;;;;;4.84;85.54;101124.16;5040000;28;20361;-79
2022/03/16 00:57:01;;;;;;;9.80;3.70;;;;;;;4.96;85.58;101116.78;5035365;28;20030;-80
2022/03/16 00:59:27;;;;;;;9.48;3.75;;;;;;;5.05;84.92;101119.38;5035616;28;20033;-79
2022/03/16 01:01:52;;;;;;;7.22;3.67;;;;;;;5.05;85.12;101113.19;5035500;28;20036;-79
2022/03/16 01:04:18;;;;;;;10.00;3.83;;;;;;;5.07;84.91;101117.38;5036168;28;20036;-79
2022/03/16 01:06:43;;;;;;;9.73;4.18;;;;;;;4.98;84.25;101115.63;5036051;28;20165;-79
2022/03/16 01:09:08;;;;;;;9.63;3.90;;;;;;;4.85;84.97;101118.66;5035717;28;20067;-80
2022/03/16 01:11:34;;;;;;;10.27;4.05;;;;;;;5.00;84.78;101118.16;5036040;28;20053;-79
2022/03/16 01:14:00;;;;;;;9.93;3.50;;;;;;;4.89;85.34;101119.22;5035764;28;20038;-81
2022/03/16 01:16:25;;;;;;;10.68;3.97;;;;;;;4.88;84.59;101120.19;5036648;28;20033;-79
2022/03/16 01:18:50;;;;;;;8.10;4.07;;;;;;;4.86;84.71;101115.00;5037871;28;20452;-81
2022/03/16 01:21:16;;;;;;;12.27;5.13;;;;;;;4.87;84.44;101113.16;5039960;28;20079;-79
2022/03/16 01:23:42;;;;;;;10.90;4.30;;;;;;;4.78;84.46;101116.75;5039522;28;20372;-79
2022/03/16 01:26:07;;;;;;;9.60;4.07;;;;;;;4.59;85.14;101122.22;5039288;28;20102;-79
2022/03/16 01:28:33;;;;;;;8.80;4.07;;;;;;;4.69;85.31;101115.81;5038644;28;20033;-80
2022/03/16 01:31:01;;;;;;;11.75;4.03;;;;;;;4.86;84.57;101108.81;5039063;28;20271;-80
2022/03/16 01:33:27;;;;;;;10.18;3.88;;;;;;;4.91;83.96;101109.22;5039304;28;20171;-79
2022/03/16 01:35:52;;;;;;;8.88;3.60;;;;;;;4.79;84.87;101100.59;5038623;28;20030;-79
2022/03/16 01:38:18;;;;;;;10.57;4.53;;;;;;;4.81;85.44;101105.78;5038894;28;20380;-78
2022/03/16 01:40:43;;;;;;;8.43;3.53;;;;;;;5.09;83.78;101102.03;5038744;28;20271;-79
2022/03/16 01:43:09;;;;;;;10.88;4.03;;;;;;;5.18;83.11;101105.66;5038549;28;20294;-81
2022/03/16 01:45:34;;;;;;;11.15;3.80;;;;;;;5.07;83.90;101106.69;5039222;28;20041;-79
2022/03/16 01:48:00;;;;;;;8.77;3.83;;;;;;;5.00;83.25;101113.66;5038418;28;20083;-79
2022/03/16 01:50:25;;;;;;;12.48;4.47;;;;;;;4.82;83.21;101115.47;5039189;28;20037;-80
2022/03/16 01:52:51;;;;;;;8.63;3.78;;;;;;;4.62;83.75;101125.44;5038621;28;20487;-80
2022/03/16 01:55:16;;;;;;;9.48;4.15;;;;;;;4.43;84.29;101120.19;5039116;28;20033;-78
2022/03/16 01:57:47;;;;;;;9.43;4.30;;;;;;;4.25;85.44;101119.28;5037488;28;20035;-79
2022/03/16 02:00:13;;;;;;;17.38;4.65;;;;;;;4.26;85.61;101119.16;5038651;28;20033;-80
2022/03/16 02:02:38;;;;;;;;;;;;;;;4.16;85.27;101115.66;5038902;28;20079;-78
2022/03/16 02:05:04;;;;;;;11.02;4.70;;;;;;;4.02;85.89;101105.47;5038473;28;19922;-79
2022/03/16 02:07:29;;;;;;;9.60;3.80;;;;;;;4.08;86.29;101102.25;5038088;28;20057;-79
2022/03/16 02:09:59;;;;;;;9.83;4.13;;;;;;;4.38;86.29;101098.44;5037928;28;20536;-81
2022/03/16 02:12:24;;;;;;;11.15;4.07;;;;;;;4.58;84.50;101104.53;5038846;28;20334;-80
2022/03/16 02:14:50;;;;;;;9.07;4.40;;;;;;;4.71;84.49;101113.84;5038938;28;20453;-80
2022/03/16 02:17:15;;;;;;;12.03;3.93;;;;;;;4.79;82.45;101105.94;5039567;28;20367;-80
2022/03/16 02:19:41;;;;;;;11.15;3.70;;;;;;;4.69;82.20;101101.63;5039200;28;20328;-80
2022/03/16 02:22:09;;;;;;;7.60;3.60;;;;;;;4.51;82.48;101096.25;5038202;28;20143;-80
2022/03/16 02:24:34;;;;;;;10.23;3.90;;;;;;;4.29;82.66;101102.84;5038662;28;20033;-80
2022/03/16 02:27:01;;;;;;;12.10;4.32;;;;;;;4.25;83.64;101096.13;5038539;28;20387;-81
2022/03/16 02:29:27;;;;;;;6.75;3.58;;;;;;;4.45;84.31;101097.72;5037837;28;20460;-80
2022/03/16 02:31:52;;;;;;;8.27;3.45;;;;;;;4.44;84.11;101089.84;5037868;28;20079;-80
2022/03/16 02:34:17;;;;;;;7.97;3.83;;;;;;;4.45;84.30;101095.06;5038765;28;20039;-80
2022/03/16 02:36:43;;;;;;;9.45;3.72;;;;;;;4.46;83.85;101088.72;5037934;28;20284;-80
2022/03/16 02:39:08;;;;;;;11.33;4.33;;;;;;;4.54;83.74;101086.13;5038508;28;20533;-80
2022/03/16 02:41:34;;;;;;;8.88;4.03;;;;;;;4.64;83.67;101086.09;5039100;28;20033;-80
2022/03/16 02:43:59;;;;;;;14.33;3.57;;;;;;;4.67;83.69;101080.41;5038529;28;20123;-80
2022/03/16 02:46:25;;;;;;;7.63;3.80;;;;;;;4.75;82.68;101082.34;5039448;28;20268;-82
2022/03/16 02:48:50;;;;;;;8.45;3.83;;;;;;;4.67;82.77;101084.91;5038542;28;20151;-79
2022/03/16 02:51:16;;;;;;;8.63;3.63;;;;;;;4.43;82.80;101081.00;5038018;28;20068;-79
2022/03/16 02:53:41;;;;;;;9.32;4.03;;;;;;;4.11;84.48;101075.28;5037676;28;20025;-80
2022/03/16 02:56:07;;;;;;;10.38;3.88;;;;;;;4.07;83.58;101076.56;5036677;28;20029;-80
2022/03/16 02:58:33;;;;;;;8.50;3.65;;;;;;;3.97;83.31;101079.25;5038234;28;20036;-79
2022/03/16 03:00:58;;;;;;;8.55;4.00;;;;;;;3.91;83.06;101082.53;5037265;28;20101;-80
2022/03/16 03:03:24;;;;;;;10.45;4.53;;;;;;;3.66;84.52;101078.66;5038008;28;20084;-81
2022/03/16 03:05:51;;;;;;;9.10;3.80;;;;;;;3.61;84.55;101086.22;5038347;28;20045;-80
2022/03/16 03:08:17;;;;;;;12.80;4.47;;;;;;;3.66;83.69;101081.31;5036784;28;20030;-81
2022/03/16 03:10:42;;;;;;;9.57;3.63;;;;;;;3.47;84.93;101082.19;5038865;28;20534;-80
2022/03/16 03:13:07;;;;;;;11.20;4.17;;;;;;;3.43;85.40;101077.28;5038687;28;20021;-80
2022/03/16 03:15:33;;;;;;;8.60;4.65;;;;;;;3.45;84.96;101078.00;5036765;28;20276;-80
2022/03/16 03:17:58;;;;;;;7.40;3.25;;;;;;;3.43;85.46;101074.63;5038009;28;20472;-80
2022/03/16 03:20:23;;;;;;;8.77;3.63;;;;;;;3.56;85.42;101071.69;5038551;28;20034;-80
2022/03/16 03:22:49;;;;;;;9.90;3.03;;;;;;;3.70;85.26;101069.41;5037494;28;20075;-81
2022/03/16 03:25:15;;;;;;;10.25;3.25;;;;;;;3.92;84.23;101075.34;5037846;28;20060;-80
2022/03/16 03:27:41;;;;;;;7.78;3.42;;;;;;;3.87;84.14;101066.94;5037299;28;20045;-80
2022/03/16 03:30:08;;;;;;;9.02;4.05;;;;;;;3.87;84.63;101070.47;5037839;28;20030;-80
2022/03/16 03:32:33;;;;;;;7.38;3.83;;;;;;;4.01;83.53;101077.97;5037030;28;20460;-80
2022/03/16 03:34:58;;;;;;;9.10;3.75;;;;;;;3.89;83.96;101072.97;5037999;28;20034;-79
2022/03/16 03:37:30;;;;;;;10.10;3.28;;;;;;;3.82;84.41;101083.38;5037859;28;20037;-80
2022/03/16 03:39:56;;;;;;;12.18;3.92;;;;;;;3.74;84.90;101078.78;5037472;28;20037;-79
2022/03/16 03:42:21;;;;;;;8.57;4.03;;;;;;;3.89;84.18;101078.31;5036692;28;20025;-80
2022/03/16 03:44:47;;;;;;;8.15;3.45;;;;;;;3.82;84.11;101078.03;5036508;28;20101;-80
2022/03/16 03:47:12;;;;;;;9.17;3.57;;;;;;;3.79;84.76;101089.84;5037348;28;20045;-81
2022/03/16 03:49:39;;;;;;;8.43;3.45;;;;;;;3.67;85.13;101079.50;5037314;28;20789;-80
2022/03/16 03:52:06;;;;;;;9.02;3.78;;;;;;;3.82;84.81;101084.22;5038176;28;20065;-80
2022/03/16 03:54:31;;;;;;;8.23;3.30;;;;;;;3.91;84.16;101082.53;5019997;28;20038;-80
2022/03/16 03:56:57;;;;;;;13.25;3.53;;;;;;;3.97;84.64;101065.06;5036810;28;20033;-80
2022/03/16 03:59:25;;;;;;;8.05;3.38;;;;;;;4.01;84.22;101069.13;5037553;28;20131;-80
2022/03/16 04:01:51;;;;;;;8.73;3.72;;;;;;;3.89;84.59;101067.66;5036874;28;20164;-80
2022/03/16 04:04:17;;;;;;;6.57;2.90;;;;;;;3.90;84.70;101070.16;5036095;28;20120;-80
2022/03/16 04:06:42;;;;;;;6.72;3.13;;;;;;;4.02;83.55;101069.00;5037524;28;20049;-81
2022/03/16 04:09:08;;;;;;;8.10;3.23;;;;;;;3.76;84.84;101067.97;5037636;28;20037;-80
2022/03/16 04:11:33;;;;;;;8.48;3.05;;;;;;;3.89;84.57;101073.81;5037328;28;20029;-80
2022/03/16 04:13:59;;;;;;;9.57;3.73;;;;;;;3.91;84.54;101068.34;5037136;28;20038;-80
2022/03/16 04:16:25;;;;;;;8.15;4.43;;;;;;;3.89;83.97;101067.66;5036925;28;20484;-80
2022/03/16 04:18:52;;;;;;;9.13;3.45;;;;;;;4.09;83.85;101071.91;5037253;28;20076;-81
2022/03/16 04:21:17;;;;;;;8.05;3.50;;;;;;;3.89;83.59;101072.97;5036908;28;20029;-81
2022/03/16 04:23:43;;;;;;;7.22;3.58;;;;;;;3.77;84.01;101075.81;5036925;28;20040;-81
2022/03/16 04:26:08;;;;;;;9.65;3.70;;;;;;;3.66;84.59;101083.16;5037704;28;20061;-80
2022/03/16 04:28:34;;;;;;;9.10;3.75;;;;;;;3.64;84.45;101083.28;5036970;28;20357;-80
2022/03/16 04:31:02;;;;;;;8.15;3.22;;;;;;;3.58;84.21;101078.56;5036477;28;20037;-80
2022/03/16 04:33:28;;;;;;;11.68;3.90;;;;;;;3.44;85.14;101076.31;5036452;28;20029;-80
2022/03/16 04:35:54;;;;;;;11.60;3.95;;;;;;;3.49;84.99;101085.56;5036684;28;20040;-80
2022/03/16 04:38:20;;;;;;;8.90;3.55;;;;;;;3.21;85.45;101088.28;5037328;28;20510;-80
2022/03/16 04:40:46;;;;;;;9.57;3.53;;;;;;;3.37;85.27;101078.72;5037002;28;20120;-80
2022/03/16 04:43:11;;;;;;;7.38;3.35;;;;;;;3.48;84.87;101077.72;5037506;28;20745;-80
2022/03/16 04:45:38;;;;;;;8.40;3.70;;;;;;;3.64;84.35;101077.94;5037251;28;20030;-80
2022/03/16 04:48:07;;;;;;;7.95;3.75;;;;;;;3.58;84.09;101075.88;5036170;28;20391;-80
2022/03/16 04:50:33;;;;;;;8.57;3.38;;;;;;;3.47;84.55;101078.69;5036113;28;20025;-79
2022/03/16 04:52:59;;;;;;;11.63;3.58;;;;;;;3.53;84.39;101080.78;5036574;28;20408;-80
2022/03/16 04:55:24;;;;;;;7.90;3.17;;;;;;;3.49;84.76;101087.38;5036304;28;20120;-79
2022/03/16 04:57:49;;;;;;;9.93;3.33;;;;;;;3.57;84.02;101081.34;5036139;28;20288;-79
2022/03/16 05:00:15;;;;;;;8.13;3.50;;;;;;;3.64;83.67;101083.28;5035351;28;20734;-80
2022/03/16 05:02:40;;;;;;;8.30;3.00;;;;;;;3.60;84.09;101079.22;5036291;28;20037;-80
2022/03/16 05:05:06;;;;;;;7.43;3.10;;;;;;;3.61;83.83;101083.56;5036063;28;20069;-80
2022/03/16 05:07:31;;;;;;;6.60;3.03;;;;;;;3.63;84.33;101084.25;5035883;28;20768;-78
2022/03/16 05:09:57;;;;;;;10.30;3.60;;;;;;;3.61;83.81;101086.22;5036504;28;20029;-79
2022/03/16 05:12:22;;;;;;;8.27;3.63;;;;;;;3.67;83.71;101079.50;5035365;28;20030;-81
2022/03/16 05:14:49;;;;;;;10.83;4.27;;;;;;;3.67;83.76;101083.00;5036081;28;20091;-80
2022/03/16 05:17:14;;;;;;;9.10;3.67;;;;;;;3.71;83.66;101086.22;5035272;28;20325;-80
2022/03/16 05:19:39;;;;;;;8.10;3.40;;;;;;;3.66;83.65;101083.16;5037285;28;20034;-80
2022/03/16 05:22:05;;;;;;;8.73;3.80;;;;;;;3.70;83.55;101085.38;5037654;28;20052;-80
2022/03/16 05:24:30;;;;;;;11.45;3.20;;;;;;;3.73;83.30;101084.25;5037586;28;20415;-79
2022/03/16 05:26:55;;;;;;;6.80;2.90;;;;;;;3.74;83.63;101091.28;5036233;28;20033;-79
2022/03/16 05:29:21;;;;;;;9.10;3.83;;;;;;;3.71;83.19;101084.41;5035386;28;20104;-80
2022/03/16 05:31:46;;;;;;;8.83;3.67;;;;;;;3.74;83.32;101094.78;5037132;28;20060;-79
2022/03/16 05:34:11;;;;;;;11.20;4.60;;;;;;;3.69;83.22;101089.03;5036307;28;20248;-79
2022/03/16 05:36:37;;;;;;;10.83;4.63;;;;;;;3.64;83.40;101093.09;5035826;28;20040;-78
2022/03/16 05:39:04;;;;;;;9.73;4.10;;;;;;;3.68;83.32;101097.16;5035653;28;20026;-79
2022/03/16 05:41:29;;;;;;;9.27;3.80;;;;;;;3.72;83.33;101090.56;5035897;28;20615;-79
2022/03/16 05:43:55;;;;;;;8.32;3.25;;;;;;;3.74;83.23;101094.78;5035448;28;20029;-77
2022/03/16 05:46:20;;;;;;;8.43;3.55;;;;;;;3.75;83.14;101093.78;5035895;28;20124;-80
2022/03/16 05:48:45;;;;;;;9.73;4.47;;;;;;;3.79;83.03;101092.50;5036997;28;20025;-79
2022/03/16 05:51:11;;;;;;;7.43;3.70;;;;;;;3.83;83.30;101096.56;5035828;28;20034;-78
2022/03/16 05:53:36;;;;;;;8.10;3.53;;;;;;;3.91;82.61;101092.34;5033087;28;20464;-78
2022/03/16 05:56:02;;;;;;;7.80;3.90;;;;;;;3.88;82.64;101088.13;5034281;28;20287;-78
2022/03/16 05:58:28;;;;;;;11.07;3.65;;;;;;;3.88;82.87;101087.28;5034390;28;20041;-79
2022/03/16 06:00:53;;;;;;;9.60;4.47;;;;;;;3.73;82.95;101079.78;5035224;28;20029;-78
2022/03/16 06:03:18;;;;;;;8.57;3.60;;;;;;;3.66;83.41;101086.66;5032355;28;20033;-78
2022/03/16 06:05:44;;;;;;;10.37;4.40;;;;;;;3.68;83.14;101086.50;5037630;28;20084;-78
2022/03/16 06:08:09;;;;;;;8.38;3.70;;;;;;;3.75;82.69;101092.94;5037646;28;20280;-77
2022/03/16 06:10:35;;;;;;;8.52;3.40;;;;;;;3.71;83.14;101096.88;5038270;28;20032;-78
2022/03/16 06:13:05;;;;;;;11.02;4.25;;;;;;;3.70;83.05;101095.19;5038127;28;20037;-78
2022/03/16 06:15:40;;;;;;;8.18;3.25;;;;;;;3.74;83.29;101089.44;5037572;28;20088;-77
2022/03/16 06:18:06;;;;;;;8.82;4.03;;;;;;;3.76;83.05;101090.13;5037680;28;20460;-78
2022/03/16 06:20:33;;;;;;;11.27;4.33;;;;;;;3.77;83.00;101091.78;5038061;28;20029;-78
2022/03/16 06:22:59;;;;;;;8.93;3.58;;;;;;;3.80;82.96;101096.84;5020342;28;20070;-79
2022/03/16 06:25:24;;;;;;;10.87;3.83;;;;;;;3.76;82.69;101092.78;5037601;28;20083;-79
2022/03/16 06:27:50;;;;;;;11.98;5.05;;;;;;;3.87;82.72;101090.94;5038438;28;20630;-79
2022/03/16 06:30:16;;;;;;;10.55;3.90;;;;;;;3.81;82.01;101092.34;5038000;28;20038;-79
2022/03/16 06:32:47;;;;;;;6.80;3.30;;;;;;;3.85;83.02;101096.41;5038779;28;20044;-79
2022/03/16 06:35:15;;;;;;;10.38;4.13;;;;;;;3.89;82.10;101088.97;5039170;28;20029;-79
2022/03/16 06:37:41;;;;;;;9.80;3.88;;;;;;;3.81;82.36;101095.03;5039085;28;20033;-79
2022/03/16 06:40:07;;;;;;;9.40;3.85;;;;;;;3.87;81.99;101096.28;5038303;28;20049;-79
2022/03/16 06:42:44;;;;;;;8.07;3.35;;;;;;;3.88;81.92;101092.63;5039273;28;20048;-79
2022/03/16 06:45:09;;;;;;;11.35;4.25;;;;;;;3.88;82.13;101089.97;5038450;28;20435;-79
2022/03/16 06:47:38;;;;;;;8.57;3.30;;;;;;;3.84;82.26;101098.25;5037779;28;20041;-79
2022/03/16 06:50:05;;;;;;;11.23;3.95;;;;;;;4.06;81.87;101096.22;5040144;28;20053;-79
2022/03/16 06:52:31;;;;;;;13.40;4.15;;;;;;;4.03;81.77;101093.84;5037760;28;20357;-80
2022/03/16 06:54:56;;;;;;;14.57;5.13;;;;;;;3.94;81.89;101092.06;5038736;28;20029;-80
2022/03/16 06:57:21;;;;;;;9.27;4.47;;;;;;;4.02;81.73;101092.16;5038845;28;20034;-80
2022/03/16 06:59:47;;;;;;;7.73;3.40;;;;;;;4.32;81.07;101096.34;5039293;28;20797;-81
2022/03/16 07:02:12;;;;;;;10.10;3.77;;;;;;;4.26;80.63;101097.81;5039332;28;20048;-80
2022/03/16 07:04:37;;;;;;;12.57;4.50;;;;;;;4.24;81.52;101105.13;5039302;28;20257;-79
2022/03/16 07:07:03;;;;;;;9.83;4.10;;;;;;;4.40;80.34;101097.31;5039520;28;20046;-81
2022/03/16 07:09:32;;;;;;;12.57;4.32;;;;;;;4.39;80.63;101102.78;5038471;28;20037;-78
2022/03/16 07:11:57;;;;;;;13.98;4.95;;;;;;;4.36;80.29;101103.94;5038456;28;20438;-78
2022/03/16 07:14:31;;;;;;;9.60;4.57;;;;;;;4.51;80.17;101107.78;5037560;28;20033;-79
2022/03/16 07:16:58;;;;;;;10.45;3.80;;;;;;;4.64;79.82;101110.09;5036289;28;20076;-79
2022/03/16 07:19:23;;;;;;;9.20;3.88;;;;;;;4.70;79.88;101114.00;5037928;28;20034;-79
2022/03/16 07:21:49;;;;;;;10.95;4.20;;;;;;;4.88;79.51;101109.50;5038113;28;20033;-78
2022/03/16 07:24:15;;;;;;;11.23;4.50;;;;;;;4.91;79.59;101114.56;5037293;28;20060;-78
2022/03/16 07:26:40;;;;;;;11.10;4.15;;;;;;;5.19;77.73;101107.31;5036203;28;20480;-78
2022/03/16 07:29:06;;;;;;;11.77;4.07;;;;;;;5.27;78.12;101103.88;5036473;28;20033;-78
2022/03/16 07:31:32;;;;;;;11.20;4.38;;;;;;;5.47;77.39;101110.72;5035538;28;20109;-78
2022/03/16 07:33:58;;;;;;;8.77;4.18;;;;;;;5.75;77.11;101114.94;5037520;28;20126;-78
2022/03/16 07:36:23;;;;;;;8.18;3.85;;;;;;;5.85;75.94;101110.34;5037501;28;20124;-78
2022/03/16 07:38:49;;;;;;;9.80;4.28;;;;;;;6.09;74.85;101104.31;5038224;28;20432;-78
2022/03/16 07:41:15;;;;;;;10.10;4.55;;;;;;;6.19;75.11;101118.41;5038943;28;20041;-79
2022/03/16 07:43:41;;;;;;;18.47;5.67;;;;;;;6.40;73.85;101118.03;5040533;28;20095;-78
2022/03/16 07:46:07;;;;;;;7.50;3.40;;;;;;;6.56;73.28;101111.88;5037486;28;20272;-78
2022/03/16 07:48:34;;;;;;;10.25;3.90;;;;;;;6.69;72.93;101114.09;5037293;28;20040;-79
2022/03/16 07:51:00;;;;;;;9.63;4.00;;;;;;;6.82;73.06;101104.59;5036435;28;20026;-78
2022/03/16 07:53:25;;;;;;;8.80;3.90;;;;;;;6.91;72.99;101108.13;5036913;28;20025;-78
2022/03/16 07:55:55;;;;;;;9.25;3.45;;;;;;;7.01;72.51;101092.72;5034445;28;20055;-76
2022/03/16 07:58:21;;;;;;;9.93;4.03;;;;;;;7.16;71.72;101096.47;5033926;28;20042;-77
2022/03/16 08:00:46;;;;;;;9.38;4.57;;;;;;;7.27;71.66;101089.91;5034126;28;20029;-76
2022/03/16 08:03:13;;;;;;;11.82;3.67;;;;;;;7.37;71.29;101087.06;5034249;28;20044;-76
2022/03/16 08:05:39;;;;;;;9.68;4.15;;;;;;;7.42;70.73;101092.75;5032607;28;20400;-76
2022/03/16 08:08:05;;;;;;;9.27;3.58;;;;;;;7.58;70.33;101093.59;5034950;28;20120;-78
2022/03/16 08:10:30;;;;;;;11.45;3.30;;;;;;;7.73;69.53;101085.69;5037120;28;20061;-78
2022/03/16 08:12:56;;;;;;;10.07;3.95;;;;;;;7.83;69.24;101086.34;5035879;28;20036;-77
2022/03/16 08:15:21;;;;;;;8.45;3.85;;;;;;;8.02;68.69;101077.94;5037145;28;20026;-78
2022/03/16 08:17:46;;;;;;;8.10;3.97;;;;;;;8.07;68.57;101074.69;5037026;28;20035;-78
2022/03/16 08:20:12;;;;;;;10.60;4.47;;;;;;;8.27;68.60;101073.28;5036877;28;20268;-78
2022/03/16 08:22:38;;;;;;;10.80;4.30;;;;;;;8.47;67.67;101070.22;5034482;28;20101;-78
2022/03/16 08:25:05;;;;;;;8.70;3.87;;;;;;;8.54;66.82;101065.81;5034963;28;20045;-77
2022/03/16 08:27:31;;;;;;;9.23;3.80;;;;;;;8.72;66.17;101063.72;5035591;28;20271;-78
2022/03/16 08:29:57;;;;;;;8.18;3.60;;;;;;;8.65;66.20;101057.38;5035659;28;20037;-77
2022/03/16 08:32:23;;;;;;;9.25;3.88;;;;;;;8.77;65.73;101071.25;5038146;28;20559;-78
2022/03/16 08:34:49;;;;;;;8.95;3.35;;;;;;;8.91;64.68;101057.03;5036667;28;20075;-78
2022/03/16 08:37:14;;;;;;;9.18;4.40;;;;;;;8.88;65.25;101068.16;5034707;28;20041;-77
2022/03/16 08:39:41;;;;;;;8.10;3.28;;;;;;;9.01;64.99;101071.06;5035853;28;20025;-78
2022/03/16 08:42:07;;;;;;;8.00;3.67;;;;;;;9.18;64.53;101069.09;5035688;28;20041;-78
2022/03/16 08:44:33;;;;;;;11.73;4.18;;;;;;;9.26;64.45;101056.44;5017224;28;20112;-78
2022/03/16 08:46:59;;;;;;;8.48;3.17;;;;;;;9.29;62.74;101060.63;5034038;28;20033;-77
2022/03/16 08:49:24;;;;;;;13.75;4.18;;;;;;;9.51;61.95;101062.41;5033985;28;20040;-78
2022/03/16 08:51:50;;;;;;;9.70;3.75;;;;;;;9.61;60.69;101046.03;5034337;28;20502;-83
2022/03/16 08:54:17;;;;;;;8.38;3.67;;;;;;;9.43;61.21;101051.75;5035531;28;20113;-79
2022/03/16 08:56:45;;;;;;;8.95;3.88;;;;;;;9.51;61.14;101037.38;5034678;28;20063;-80
2022/03/16 08:59:11;;;;;;;8.93;3.55;;;;;;;9.60;61.10;101055.13;5036489;28;20087;-79
2022/03/16 09:01:37;;;;;;;8.20;3.50;;;;;;;9.77;60.67;101059.31;5033963;28;20037;-76
2022/03/16 09:04:03;;;;;;;7.18;3.17;;;;;;;9.91;61.00;101053.09;5033562;28;20267;-77
2022/03/16 09:06:29;;;;;;;7.93;3.92;;;;;;;9.91;59.69;101063.03;5033676;28;20484;-78
2022/03/16 09:08:54;;;;;;;8.95;3.53;;;;;;;10.00;60.11;101054.69;5034139;28;20034;-78
2022/03/16 09:11:20;;;;;;;11.15;3.53;;;;;;;10.05;59.87;101054.94;5033455;28;20040;-76
2022/03/16 09:13:47;;;;;;;8.25;3.15;;;;;;;10.32;59.41;101050.81;5033344;28;20034;-77
2022/03/16 09:16:14;;;;;;;7.65;3.28;;;;;;;10.29;59.21;101048.47;5034205;28;20087;-77
2022/03/16 09:18:39;;;;;;;8.63;3.15;;;;;;;10.26;59.05;101039.94;5033564;28;20047;-76
2022/03/16 09:21:05;;;;;;;8.32;3.78;;;;;;;10.25;58.79;101049.03;5033506;28;20026;-78
2022/03/16 09:23:31;;;;;;;9.63;4.00;;;;;;;10.18;59.39;101045.41;5032217;28;20090;-77
2022/03/16 09:26:01;;;;;;;8.05;3.15;;;;;;;10.20;59.74;101046.94;5033478;28;20272;-76
2022/03/16 09:28:27;;;;;;;8.30;3.17;;;;;;;10.30;58.36;101036.69;5034398;28;20075;-78
2022/03/16 09:30:53;;;;;;;7.90;3.47;;;;;;;10.31;59.54;101043.75;5032969;28;20037;-79
2022/03/16 09:33:21;;;;;;;7.80;3.05;;;;;;;10.54;58.73;101049.00;5032969;28;20384;-79
2022/03/16 09:35:48;;;;;;;9.68;3.72;;;;;;;10.60;58.09;101036.59;5032974;28;20034;-76
2022/03/16 09:38:15;;;;;;;7.25;2.97;;;;;;;10.59;58.41;101043.84;5032387;28;20241;-78
2022/03/16 09:40:41;;;;;;;7.30;2.90;;;;;;;10.79;57.88;101041.38;5037841;28;20038;-79
2022/03/16 09:43:08;;;;;;;7.38;3.38;;;;;;;10.62;57.27;101050.72;5038458;28;20515;-78
2022/03/16 09:45:46;;;;;;;8.80;3.63;;;;;;;10.71;57.39;101046.91;5037567;28;20064;-78
2022/03/16 09:48:13;;;;;;;7.90;3.05;;;;;;;10.85;57.13;101045.19;5036855;28;20029;-80
2022/03/16 09:50:41;;;;;;;8.98;3.33;;;;;;;11.10;56.73;101057.28;5038769;28;20056;-78
2022/03/16 09:53:09;;;;;;;8.52;3.28;;;;;;;10.96;57.93;101050.91;5038029;28;20376;-79
2022/03/16 09:55:35;;;;;;;7.97;3.60;;;;;;;11.00;57.85;101052.19;5038138;28;20033;-79
2022/03/16 09:58:00;;;;;;;7.53;3.57;;;;;;;10.99;56.78;101055.91;5038890;28;20055;-80
2022/03/16 10:00:25;;;;;;;8.00;3.30;;;;;;;11.03;56.78;101050.97;5038455;28;20318;-79
2022/03/16 10:02:52;;;;;;;7.72;3.55;;;;;;;11.10;56.86;101068.91;5039304;28;20426;-79
2022/03/16 10:05:19;;;;;;;8.23;3.38;;;;;;;10.95;56.22;101064.56;5038401;28;20040;-79
2022/03/16 10:07:46;;;;;;;9.77;3.85;;;;;;;11.04;56.14;101064.28;5038413;28;20352;-78
2022/03/16 10:13:13;;;;;;;8.57;3.78;;;;;;;11.04;56.29;101060.75;5038066;28;20135;-78
2022/03/16 10:15:39;;;;;;;9.02;3.75;;;;;;;11.01;55.82;101050.31;5037851;28;20025;-79
2022/03/16 10:18:05;;;;;;;7.38;3.35;;;;;;;11.03;56.24;101048.28;5037696;28;20040;-78
2022/03/16 10:20:36;;;;;;;8.65;3.40;;;;;;;11.07;57.13;101045.00;5037838;28;20045;-77
2022/03/16 10:23:03;;;;;;;8.50;4.10;;;;;;;11.35;55.33;101044.19;5038329;28;20032;-80
2022/03/16 10:25:34;;;;;;;8.88;3.47;;;;;;;11.31;54.90;101043.75;5039401;28;20036;-79
2022/03/16 10:28:10;;;;;;;7.80;3.22;;;;;;;11.66;54.90;101038.41;5038142;28;20067;-79
2022/03/16 10:30:37;;;;;;;7.40;3.20;;;;;;;11.61;54.19;101043.59;5038050;28;20469;-79
2022/03/16 10:33:03;;;;;;;8.48;3.35;;;;;;;11.63;54.77;101036.13;5036251;28;20296;-79
2022/03/16 10:35:28;;;;;;;8.23;3.80;;;;;;;11.62;54.64;101034.47;5038240;28;20122;-79
2022/03/16 10:38:07;;;;;;;7.90;3.08;;;;;;;11.63;55.15;101036.13;5037824;28;20033;-80
2022/03/16 10:40:32;;;;;;;5.75;2.78;;;;;;;11.85;54.97;101031.50;5037376;28;20117;-78
2022/03/16 10:48:25;;;;;;;10.05;3.35;;;;;;;11.68;53.80;101028.25;5039993;28;20084;-78
2022/03/16 10:51:02;;;;;;;8.47;3.50;;;;;;;11.88;53.84;101033.81;5037503;28;20029;-79
2022/03/16 10:53:30;;;;;;;6.50;2.72;;;;;;;12.13;53.21;101022.34;5037826;28;20300;-78
2022/03/16 10:55:59;;;;;;;6.90;2.70;;;;;;;12.15;52.34;101022.97;5039121;28;20112;-81
2022/03/16 10:58:26;;;;;;;7.47;3.10;;;;;;;12.26;52.31;101020.72;5036296;28;20029;-78
2022/03/16 11:00:52;;;;;;;7.45;2.65;;;;;;;12.23;52.04;101023.81;5036723;28;20497;-78
2022/03/16 11:03:22;;;;;;;5.68;2.55;;;;;;;12.43;52.18;101020.19;5035666;28;20113;-78
2022/03/16 11:05:48;;;;;;;7.30;2.90;;;;;;;12.41;51.71;101014.13;5035776;28;20049;-78
2022/03/16 11:08:14;;;;;;;6.00;2.85;;;;;;;12.46;51.38;101011.66;5036199;28;20040;-79
2022/03/16 11:10:41;;;;;;;7.00;2.40;;;;;;;12.57;51.53;101006.69;5035862;28;20395;-78
2022/03/16 11:15:55;;;;;;;5.88;2.70;;;;;;;12.73;50.99;101017.97;5036220;28;20164;-79
2022/03/16 11:18:23;;;;;;;5.55;2.50;;;;;;;12.70;51.24;101021.09;5037036;28;20025;-77
2022/03/16 11:20:52;;;;;;;7.78;2.78;;;;;;;12.61;51.44;101021.47;5037510;28;20040;-78
2022/03/16 11:26:40;;;;;;;5.50;2.20;;;;;;;12.84;50.69;101001.16;5036780;28;20075;-77
2022/03/16 11:29:24;;;;;;;8.57;3.05;;;;;;;12.96;50.17;101000.53;5036483;28;20052;-79
2022/03/16 11:31:49;;;;;;;7.55;2.33;;;;;;;13.30;49.15;100989.56;5036829;28;20029;-79
2022/03/16 11:34:22;;;;;;;9.68;2.63;;;;;;;13.42;48.62;101001.44;5035065;28;20041;-79
2022/03/16 11:37:00;;;;;;;4.68;2.13;;;;;;;13.37;48.90;100995.81;5036483;28;20487;-77
2022/03/16 11:39:25;;;;;;;5.18;2.30;;;;;;;13.27;48.49;100997.25;5036137;28;20051;-78